Time;durP1;ratioP1;P1;durP2;ratioP2;P2;SDS_P1;SDS_P2;PMS_P1;PMS_P2;Temp;Humidity;BMP_temperature;BMP_pressure;BME280_temperature;BME280_humidity;BME280_pressure;Samples;Min_cycle;Max_cycle;Signal;HPM_P1;HPM_P2
2021/06/19 00:01:43;;;;;;;6.07;5.47;;;;;;;21.20;69.25;99266.78;5091153;28;20028;-74
2021/06/19 00:04:09;;;;;;;6.38;5.78;;;;;;;21.23;69.22;99274.34;5089525;28;20543;-75
2021/06/19 00:06:34;;;;;;;6.35;5.22;;;;;;;21.14;69.31;99259.75;5091804;28;20028;-74
2021/06/19 00:09:00;;;;;;;5.82;5.25;;;;;;;21.21;69.48;99265.72;5094660;28;20073;-75
2021/06/19 00:11:25;;;;;;;6.45;5.60;;;;;;;21.30;69.63;99277.66;5093455;28;20115;-75
2021/06/19 00:13:50;;;;;;;8.30;6.03;;;;;;;21.01;69.63;99242.16;5094740;28;20024;-74
2021/06/19 00:16:16;;;;;;;7.55;6.55;;;;;;;21.24;69.86;99282.16;5094788;28;20028;-75
2021/06/19 00:18:41;;;;;;;8.90;6.22;;;;;;;20.79;69.80;99212.66;5093216;28;20107;-75
2021/06/19 00:21:07;;;;;;;7.32;5.78;;;;;;;20.71;69.85;99190.84;5094557;28;20024;-75
2021/06/19 00:23:32;;;;;;;7.65;6.40;;;;;;;21.32;70.03;99280.88;5094744;28;20028;-75
2021/06/19 00:25:59;;;;;;;9.77;6.15;;;;;;;21.33;69.90;99295.13;5094662;28;20110;-75
2021/06/19 00:28:24;;;;;;;9.65;7.22;;;;;;;21.32;70.25;99283.56;5093299;28;20024;-75
2021/06/19 00:30:50;;;;;;;8.48;7.38;;;;;;;20.71;70.29;99183.59;5094288;28;20115;-75
2021/06/19 00:33:17;;;;;;;7.55;6.80;;;;;;;21.28;70.28;99287.84;5092711;28;20032;-75
2021/06/19 00:35:42;;;;;;;9.80;6.70;;;;;;;21.07;70.66;99251.06;5094375;28;20121;-74
2021/06/19 00:38:07;;;;;;;9.23;6.43;;;;;;;21.06;70.22;99257.50;5094266;28;20114;-76
2021/06/19 00:40:33;;;;;;;7.65;6.90;;;;;;;21.15;70.49;99269.41;5094355;28;20040;-76
2021/06/19 00:43:02;;;;;;;6.90;6.30;;;;;;;21.26;70.51;99287.28;5094422;28;20557;-75
2021/06/19 00:45:30;;;;;;;10.68;8.02;;;;;;;21.03;70.83;99252.66;5094364;28;20043;-75
2021/06/19 00:47:56;;;;;;;8.65;6.80;;;;;;;20.85;70.64;99225.09;5094245;28;20032;-74
2021/06/19 00:50:23;;;;;;;9.80;6.82;;;;;;;20.88;70.66;99219.22;5094021;28;20016;-76
2021/06/19 00:52:49;;;;;;;9.00;7.25;;;;;;;21.32;70.45;99291.63;5093149;28;20036;-74
2021/06/19 00:55:14;;;;;;;8.73;6.75;;;;;;;21.30;70.58;99287.56;5094149;28;20030;-74
2021/06/19 00:57:40;;;;;;;8.82;7.25;;;;;;;21.24;70.84;99267.91;5094052;28;20052;-76
2021/06/19 01:00:08;;;;;;;8.32;6.88;;;;;;;20.97;70.73;99229.50;5094194;28;20035;-76
2021/06/19 01:02:34;;;;;;;11.10;7.38;;;;;;;21.34;70.46;99294.06;5094114;28;20028;-76
2021/06/19 01:05:00;;;;;;;7.32;6.60;;;;;;;21.34;70.48;99289.50;5094371;28;20084;-75
2021/06/19 01:07:25;;;;;;;9.85;6.85;;;;;;;20.89;70.51;99210.09;5094447;28;20028;-75
2021/06/19 01:09:51;;;;;;;9.18;7.03;;;;;;;21.32;70.58;99286.25;5094401;28;20035;-75
2021/06/19 01:12:24;;;;;;;9.00;7.35;;;;;;;20.98;70.80;99231.94;5094176;28;20035;-74
2021/06/19 01:14:51;;;;;;;9.50;8.23;;;;;;;20.83;70.83;99213.81;5093979;28;20028;-75
2021/06/19 01:17:16;;;;;;;11.55;8.73;;;;;;;21.11;71.04;99266.44;5094070;28;20028;-75
2021/06/19 01:19:41;;;;;;;8.95;8.05;;;;;;;21.18;71.02;99296.56;5095139;28;20046;-75
2021/06/19 01:22:07;;;;;;;9.93;8.70;;;;;;;21.00;71.39;99263.88;5097922;28;20420;-76
2021/06/19 01:24:33;;;;;;;15.27;9.02;;;;;;;20.65;71.29;99206.06;5094585;28;20030;-75
2021/06/19 01:26:58;;;;;;;11.30;9.07;;;;;;;21.00;71.48;99258.53;5093955;28;20028;-75
2021/06/19 01:29:24;;;;;;;11.52;8.35;;;;;;;20.69;71.50;99217.09;5093465;28;20019;-75
2021/06/19 01:31:49;;;;;;;10.27;8.63;;;;;;;20.79;71.65;99234.13;5093492;28;20111;-76
2021/06/19 01:34:15;;;;;;;10.73;8.30;;;;;;;21.01;71.61;99265.50;5092164;28;20020;-75
2021/06/19 01:36:40;;;;;;;9.40;8.50;;;;;;;20.66;71.55;99220.28;5091786;28;20062;-76
2021/06/19 01:39:06;;;;;;;9.02;7.80;;;;;;;20.82;71.40;99249.75;5093004;28;20556;-76
2021/06/19 01:41:32;;;;;;;9.80;6.95;;;;;;;21.08;71.15;99285.72;5093003;28;20040;-75
2021/06/19 01:44:08;;;;;;;7.85;7.10;;;;;;;21.12;71.07;99289.53;5093093;28;20440;-76
2021/06/19 01:46:35;;;;;;;8.65;6.75;;;;;;;21.01;70.96;99278.94;5093023;28;20046;-76
2021/06/19 01:49:00;;;;;;;8.88;8.07;;;;;;;20.46;71.01;99210.16;5092768;28;20103;-76
2021/06/19 01:51:26;;;;;;;8.30;7.50;;;;;;;20.65;71.05;99224.84;5092924;28;20058;-76
2021/06/19 01:53:55;;;;;;;11.40;7.70;;;;;;;20.97;71.06;99270.56;5091519;28;20051;-75
2021/06/19 01:56:21;;;;;;;7.30;6.63;;;;;;;20.91;70.92;99260.84;5092832;28;20012;-76
2021/06/19 01:58:47;;;;;;;8.40;6.88;;;;;;;20.98;70.84;99276.75;5093162;28;20025;-75
2021/06/19 02:01:15;;;;;;;7.80;6.32;;;;;;;21.06;70.63;99289.72;5091663;28;20023;-76
2021/06/19 02:03:45;;;;;;;7.53;6.20;;;;;;;21.02;70.47;99286.72;5093077;28;20408;-76
2021/06/19 02:06:11;;;;;;;9.00;6.32;;;;;;;21.01;70.61;99279.75;5092775;28;20028;-75
2021/06/19 02:08:37;;;;;;;6.93;6.32;;;;;;;20.60;70.45;99208.69;5092971;28;20020;-74
2021/06/19 02:11:04;;;;;;;9.55;6.43;;;;;;;20.93;70.46;99254.16;5092751;28;20047;-75
2021/06/19 02:13:30;;;;;;;7.13;6.28;;;;;;;21.03;70.57;99274.94;5092800;28;20024;-75
2021/06/19 02:15:57;;;;;;;7.28;6.50;;;;;;;21.01;70.52;99263.63;5092495;28;20051;-75
2021/06/19 02:18:22;;;;;;;7.25;6.53;;;;;;;20.44;70.37;99172.84;5092280;28;20028;-76
2021/06/19 02:20:52;;;;;;;7.72;6.40;;;;;;;20.84;70.29;99250.31;5092540;28;20031;-76
2021/06/19 02:23:22;;;;;;;7.22;6.40;;;;;;;20.72;70.27;99225.47;5092540;28;20024;-75
2021/06/19 02:25:51;;;;;;;6.25;5.65;;;;;;;20.84;70.14;99247.63;5092252;28;20020;-75
2021/06/19 02:28:20;;;;;;;6.90;5.95;;;;;;;20.96;70.19;99262.78;5092197;28;20024;-75
2021/06/19 02:30:47;;;;;;;7.72;6.22;;;;;;;20.82;70.38;99252.44;5091211;28;20038;-75
2021/06/19 02:33:13;;;;;;;6.45;5.65;;;;;;;20.90;70.45;99265.41;5090993;28;20122;-75
2021/06/19 02:35:41;;;;;;;6.22;5.30;;;;;;;20.85;70.49;99259.97;5092476;28;20016;-75
2021/06/19 02:38:08;;;;;;;6.47;5.82;;;;;;;20.54;70.20;99212.38;5090744;28;20020;-75
2021/06/19 02:40:35;;;;;;;6.60;6.00;;;;;;;20.79;70.69;99252.91;5092769;28;20028;-75
2021/06/19 02:43:00;;;;;;;6.78;5.93;;;;;;;20.77;70.76;99257.72;5092860;28;20024;-76
2021/06/19 02:45:26;;;;;;;7.15;5.72;;;;;;;20.61;70.64;99250.56;5100809;28;20050;-77
2021/06/19 02:47:55;;;;;;;7.20;6.50;;;;;;;20.68;70.35;99240.44;5091519;28;20020;-75
2021/06/19 02:50:23;;;;;;;9.05;6.47;;;;;;;20.68;70.50;99240.44;5092613;28;20070;-75
2021/06/19 02:52:49;;;;;;;6.30;5.47;;;;;;;20.68;70.49;99236.94;5092092;28;20555;-74
2021/06/19 02:55:16;;;;;;;8.77;6.35;;;;;;;20.54;70.54;99218.56;5092199;28;20056;-75
2021/06/19 02:57:42;;;;;;;7.00;6.13;;;;;;;20.74;70.58;99247.50;5092140;28;20028;-75
2021/06/19 03:00:13;;;;;;;6.88;6.05;;;;;;;20.72;70.55;99264.91;5092320;28;20527;-76
2021/06/19 03:02:39;;;;;;;10.07;6.82;;;;;;;20.67;70.43;99260.28;5090235;28;20024;-75
2021/06/19 03:05:07;;;;;;;7.82;6.40;;;;;;;20.18;70.61;99200.38;5091765;28;20028;-75
2021/06/19 03:07:32;;;;;;;9.45;7.30;;;;;;;20.58;70.84;99256.41;5090637;28;20027;-76
2021/06/19 03:09:58;;;;;;;9.20;6.50;;;;;;;20.16;70.64;99199.84;5092198;28;20027;-75
2021/06/19 03:12:26;;;;;;;10.73;7.18;;;;;;;20.18;70.88;99201.19;5091922;28;20024;-76
2021/06/19 03:14:51;;;;;;;8.18;7.32;;;;;;;20.27;71.19;99220.34;5092135;28;20031;-75
2021/06/19 03:17:17;;;;;;;10.85;6.03;;;;;;;20.15;70.94;99193.66;5092097;28;20493;-75
2021/06/19 03:19:42;;;;;;;7.63;6.68;;;;;;;20.16;70.55;99192.59;5091996;28;20115;-76
2021/06/19 03:22:08;;;;;;;7.07;6.30;;;;;;;20.55;71.01;99256.91;5091826;28;20031;-75
2021/06/19 03:24:40;;;;;;;12.02;6.88;;;;;;;20.42;70.58;99231.28;5091816;28;20416;-75
2021/06/19 03:27:08;;;;;;;9.15;6.30;;;;;;;20.51;70.47;99243.19;5092013;28;20103;-75
2021/06/19 03:29:34;;;;;;;6.85;5.93;;;;;;;20.46;70.62;99232.41;5091831;28;20119;-75
2021/06/19 03:31:59;;;;;;;9.80;6.68;;;;;;;20.15;70.49;99174.91;5091531;28;20028;-75
2021/06/19 03:34:25;;;;;;;9.48;6.32;;;;;;;20.41;70.48;99210.09;5091441;28;20024;-74
2021/06/19 03:36:58;;;;;;;8.45;5.70;;;;;;;20.28;70.29;99195.97;5091905;28;20111;-75
2021/06/19 03:39:23;;;;;;;6.07;5.18;;;;;;;20.27;70.10;99186.31;5091540;28;20028;-75
2021/06/19 03:41:49;;;;;;;9.77;6.20;;;;;;;20.42;70.10;99211.72;5093119;28;20038;-75
2021/06/19 03:44:14;;;;;;;8.75;6.40;;;;;;;20.17;69.95;99172.78;5094276;28;20058;-76
2021/06/19 03:46:40;;;;;;;8.98;6.10;;;;;;;20.54;70.36;99233.84;5095671;28;20031;-74
2021/06/19 03:49:06;;;;;;;7.40;5.45;;;;;;;20.54;70.47;99225.78;5095398;28;20480;-74
2021/06/19 03:51:32;;;;;;;9.68;6.35;;;;;;;20.40;70.27;99206.59;5094050;28;20118;-76
2021/06/19 03:53:57;;;;;;;10.95;6.03;;;;;;;20.53;70.34;99216.94;5095262;28;20028;-74
2021/06/19 03:56:23;;;;;;;9.57;5.88;;;;;;;20.39;70.43;99193.41;5095354;28;20024;-75
2021/06/19 03:58:48;;;;;;;8.45;5.68;;;;;;;20.29;70.45;99176.13;5095465;28;20035;-76
2021/06/19 04:01:14;;;;;;;8.23;5.88;;;;;;;20.67;70.40;99219.22;5095229;28;20028;-75
2021/06/19 04:03:39;;;;;;;11.52;5.75;;;;;;;20.60;70.35;99212.19;5094939;28;20111;-75
2021/06/19 04:06:05;;;;;;;7.88;5.60;;;;;;;20.54;70.46;99199.78;5095070;28;20412;-76
2021/06/19 04:08:30;;;;;;;8.07;6.18;;;;;;;20.28;70.39;99162.97;5095155;28;20016;-76
2021/06/19 04:10:55;;;;;;;8.35;5.63;;;;;;;20.38;70.38;99160.41;5095247;28;20129;-75
2021/06/19 04:13:21;;;;;;;9.48;4.97;;;;;;;20.33;70.32;99159.56;5095035;28;20119;-75
2021/06/19 04:15:46;;;;;;;8.75;6.10;;;;;;;20.43;70.75;99173.91;5095068;28;20016;-74
2021/06/19 04:18:12;;;;;;;6.03;5.38;;;;;;;20.23;70.45;99150.34;5094818;28;20036;-75
2021/06/19 04:20:37;;;;;;;5.32;4.82;;;;;;;20.37;70.45;99161.47;5094833;28;20034;-75
2021/06/19 04:23:03;;;;;;;5.90;5.00;;;;;;;20.22;70.57;99145.22;5093695;28;20039;-75
2021/06/19 04:25:28;;;;;;;7.00;5.20;;;;;;;20.56;70.82;99196.84;5095079;28;20024;-74
2021/06/19 04:27:56;;;;;;;5.93;5.05;;;;;;;20.81;70.58;99226.66;5095127;28;20121;-76
2021/06/19 04:30:23;;;;;;;8.55;5.40;;;;;;;20.76;70.58;99209.66;5094790;28;20527;-75
2021/06/19 04:32:49;;;;;;;6.55;5.68;;;;;;;20.85;70.35;99230.47;5094540;28;20481;-74
2021/06/19 04:35:16;;;;;;;7.40;4.93;;;;;;;20.93;70.09;99239.94;5094615;28;20023;-75
2021/06/19 04:37:45;;;;;;;6.93;5.05;;;;;;;20.91;70.39;99234.81;5094301;28;20586;-76
2021/06/19 04:40:20;;;;;;;5.90;4.43;;;;;;;20.59;70.03;99177.56;5095748;28;20073;-76
2021/06/19 04:43:08;;;;;;;5.50;5.00;;;;;;;20.54;70.09;99175.66;5094493;28;20470;-76
2021/06/19 04:45:31;;;;;;;8.43;5.28;;;;;;;21.06;70.15;99238.72;5093907;28;20049;-75
2021/06/19 04:48:01;;;;;;;6.88;4.63;;;;;;;20.98;70.06;99223.06;5093002;28;20035;-75
2021/06/19 04:50:27;;;;;;;5.47;5.03;;;;;;;21.03;70.17;99215.88;5092917;28;20533;-76
2021/06/19 04:52:52;;;;;;;5.75;5.30;;;;;;;20.69;69.99;99171.50;5092785;28;20061;-75
2021/06/19 04:55:19;;;;;;;5.57;5.00;;;;;;;21.24;70.19;99246.44;5093876;28;20066;-75
2021/06/19 04:57:57;;;;;;;6.20;5.63;;;;;;;21.10;70.17;99224.53;5092745;28;20042;-74
2021/06/19 05:00:27;;;;;;;4.68;4.30;;;;;;;21.38;69.86;99241.47;5093914;28;20020;-75
2021/06/19 05:02:53;;;;;;;7.85;5.18;;;;;;;21.48;69.84;99246.91;5093985;28;20035;-74
2021/06/19 05:05:18;;;;;;;5.63;3.80;;;;;;;21.46;69.08;99241.00;5094138;28;20024;-75
2021/06/19 05:07:44;;;;;;;5.18;4.18;;;;;;;21.59;68.87;99255.91;5092744;28;20020;-74
2021/06/19 05:10:10;;;;;;;7.68;4.68;;;;;;;21.37;68.39;99202.25;5093876;28;20016;-75
2021/06/19 05:12:42;;;;;;;6.65;4.75;;;;;;;21.54;68.11;99222.53;5092419;28;20452;-75
2021/06/19 05:15:08;;;;;;;;;;;;;;;21.56;68.25;99247.28;5094606;28;20100;-76
2021/06/19 05:17:33;;;;;;;5.40;4.05;;;;;;;21.23;67.98;99199.19;5093589;28;19940;-76
2021/06/19 05:19:58;;;;;;;5.15;3.88;;;;;;;21.37;67.68;99213.78;5093583;28;20016;-76
2021/06/19 05:22:24;;;;;;;9.60;3.90;;;;;;;21.66;67.53;99257.28;5093758;28;20090;-75
2021/06/19 05:24:50;;;;;;;4.93;4.32;;;;;;;21.63;67.67;99257.81;5093420;28;20026;-76
2021/06/19 05:27:16;;;;;;;3.92;3.53;;;;;;;21.77;67.23;99266.25;5093604;28;20028;-75
2021/06/19 05:29:42;;;;;;;6.93;4.50;;;;;;;21.81;67.17;99272.72;5092408;28;20032;-77
2021/06/19 05:32:08;;;;;;;6.25;4.35;;;;;;;21.85;66.69;99260.38;5094000;28;20024;-75
2021/06/19 05:34:34;;;;;;;10.63;4.63;;;;;;;22.00;67.06;99271.25;5093743;28;20024;-75
2021/06/19 05:36:59;;;;;;;4.80;4.30;;;;;;;21.50;66.79;99174.94;5093417;28;20031;-75
2021/06/19 05:39:25;;;;;;;6.93;4.38;;;;;;;21.99;66.80;99252.69;5093348;28;20016;-74
2021/06/19 05:41:50;;;;;;;5.30;3.92;;;;;;;22.13;66.43;99273.50;5091845;28;20039;-74
2021/06/19 05:44:16;;;;;;;6.60;4.10;;;;;;;21.71;66.52;99211.66;5093293;28;20020;-75
2021/06/19 05:46:41;;;;;;;5.20;3.88;;;;;;;21.67;66.55;99209.75;5093115;28;20019;-75
2021/06/19 05:49:07;;;;;;;4.65;4.25;;;;;;;22.15;66.41;99278.63;5093050;28;20035;-75
2021/06/19 05:51:32;;;;;;;6.25;4.95;;;;;;;22.16;66.37;99281.06;5093049;28;20411;-74
2021/06/19 05:53:58;;;;;;;7.60;4.47;;;;;;;21.82;66.48;99221.41;5093164;28;20024;-74
2021/06/19 05:56:23;;;;;;;6.15;4.20;;;;;;;22.04;66.49;99250.88;5091659;28;20020;-73
2021/06/19 05:58:49;;;;;;;5.15;3.85;;;;;;;22.25;66.57;99278.69;5092798;28;20020;-74
2021/06/19 06:01:14;;;;;;;4.00;3.70;;;;;;;22.16;66.32;99264.91;5092926;28;20470;-76
2021/06/19 06:03:40;;;;;;;6.53;3.90;;;;;;;22.14;66.43;99272.44;5092861;28;20020;-75
2021/06/19 06:06:05;;;;;;;3.67;3.38;;;;;;;22.31;66.24;99282.25;5092543;28;20624;-73
2021/06/19 06:08:31;;;;;;;3.95;3.53;;;;;;;21.86;66.15;99201.00;5092354;28;20039;-75
2021/06/19 06:10:56;;;;;;;4.90;3.80;;;;;;;21.93;65.87;99213.41;5092571;28;20100;-75
2021/06/19 06:13:21;;;;;;;3.85;3.38;;;;;;;22.37;65.63;99273.94;5091264;28;20050;-75
2021/06/19 06:15:47;;;;;;;6.95;3.60;;;;;;;22.33;65.69;99256.69;5091960;28;20089;-76
2021/06/19 06:18:12;;;;;;;7.97;4.53;;;;;;;22.21;65.66;99256.06;5094033;28;20407;-76
2021/06/19 06:20:38;;;;;;;5.93;3.92;;;;;;;22.43;65.65;99275.56;5091227;28;20127;-75
2021/06/19 06:23:04;;;;;;;4.63;3.90;;;;;;;22.46;65.73;99277.75;5092340;28;20048;-76
2021/06/19 06:25:30;;;;;;;4.57;4.18;;;;;;;21.91;65.59;99169.84;5092173;28;20554;-75
2021/06/19 06:27:56;;;;;;;5.22;4.18;;;;;;;22.48;65.49;99269.41;5092320;28;20136;-74
2021/06/19 06:30:22;;;;;;;5.32;4.22;;;;;;;22.57;65.33;99267.03;5092308;28;20431;-74
2021/06/19 06:32:47;;;;;;;4.68;4.13;;;;;;;22.61;65.22;99265.44;5092168;28;20024;-75
2021/06/19 06:35:14;;;;;;;5.88;4.05;;;;;;;22.75;65.07;99271.94;5092037;28;20026;-75
2021/06/19 06:37:40;;;;;;;4.88;4.03;;;;;;;22.47;64.96;99233.63;5092015;28;20504;-74
2021/06/19 06:40:09;;;;;;;9.32;4.30;;;;;;;22.76;64.90;99273.56;5091875;28;20058;-74
2021/06/19 06:42:34;;;;;;;5.95;4.13;;;;;;;22.56;64.92;99252.75;5091970;28;20037;-76
2021/06/19 06:45:00;;;;;;;5.65;4.43;;;;;;;22.60;64.75;99251.16;5091996;28;20020;-76
2021/06/19 06:47:25;;;;;;;5.80;4.13;;;;;;;22.47;64.95;99220.16;5091907;28;20020;-76
2021/06/19 06:49:51;;;;;;;8.90;4.97;;;;;;;22.79;64.89;99273.03;5091836;28;20020;-76
2021/06/19 06:52:16;;;;;;;4.20;3.78;;;;;;;22.12;64.61;99163.53;5091965;28;20031;-76
2021/06/19 06:54:42;;;;;;;5.13;4.18;;;;;;;22.86;64.63;99279.00;5092031;28;20016;-76
2021/06/19 06:57:10;;;;;;;6.65;4.00;;;;;;;22.87;64.62;99275.22;5091748;28;20016;-76
2021/06/19 06:59:36;;;;;;;5.78;3.72;;;;;;;22.89;64.50;99277.66;5090098;28;20031;-75
2021/06/19 07:02:03;;;;;;;4.65;4.03;;;;;;;22.56;64.46;99219.66;5091559;28;20029;-74
2021/06/19 07:04:29;;;;;;;5.95;4.45;;;;;;;22.28;64.27;99175.97;5090280;28;20024;-74
2021/06/19 07:06:54;;;;;;;4.80;4.13;;;;;;;22.74;64.18;99244.22;5091550;28;20042;-74
2021/06/19 07:09:19;;;;;;;5.55;5.05;;;;;;;22.70;64.21;99232.34;5091678;28;20020;-73
2021/06/19 07:11:45;;;;;;;5.75;3.47;;;;;;;23.03;64.13;99263.44;5091537;28;20481;-73
2021/06/19 07:14:10;;;;;;;4.30;3.90;;;;;;;22.72;63.74;99207.88;5089994;28;20027;-75
2021/06/19 07:16:36;;;;;;;4.28;3.70;;;;;;;23.24;63.82;99272.38;5090958;28;20024;-76
2021/06/19 07:19:01;;;;;;;6.47;4.07;;;;;;;23.39;63.48;99275.09;5091577;28;20477;-77
2021/06/19 07:21:27;;;;;;;7.82;3.45;;;;;;;23.23;63.08;99224.97;5091396;28;20027;-74
2021/06/19 07:23:53;;;;;;;9.13;4.63;;;;;;;23.13;63.20;99190.75;5091586;28;20515;-74
2021/06/19 07:26:18;;;;;;;6.20;3.80;;;;;;;23.60;63.26;99273.25;5092137;28;20020;-75
2021/06/19 07:28:44;;;;;;;4.40;3.60;;;;;;;23.40;63.23;99230.91;5091719;28;20498;-76
2021/06/19 07:31:11;;;;;;;6.60;4.05;;;;;;;23.32;63.34;99204.50;5091493;28;20028;-75
2021/06/19 07:33:36;;;;;;;4.40;3.75;;;;;;;23.61;63.05;99241.72;5091708;28;20016;-75
2021/06/19 07:36:03;;;;;;;4.45;3.90;;;;;;;23.52;63.12;99219.84;5091684;28;20020;-74
2021/06/19 07:38:30;;;;;;;5.82;3.83;;;;;;;23.75;62.81;99250.84;5091394;28;20024;-74
2021/06/19 07:40:56;;;;;;;6.18;3.95;;;;;;;23.79;62.64;99259.25;5091411;28;20035;-75
2021/06/19 07:43:25;;;;;;;4.80;3.90;;;;;;;23.63;62.79;99228.75;5091659;28;20103;-74
2021/06/19 07:45:52;;;;;;;6.65;4.28;;;;;;;23.58;62.55;99234.97;5091254;28;20028;-74
2021/06/19 07:48:17;;;;;;;7.43;4.57;;;;;;;23.42;62.46;99212.56;5091862;28;20095;-75
2021/06/19 07:50:44;;;;;;;8.38;4.97;;;;;;;23.68;62.49;99263.81;5091652;28;20099;-74
2021/06/19 07:53:09;;;;;;;5.63;3.72;;;;;;;23.66;62.26;99264.06;5091808;28;20381;-73
2021/06/19 07:55:34;;;;;;;5.82;3.63;;;;;;;23.43;62.57;99224.97;5095531;28;20035;-75
2021/06/19 07:58:00;;;;;;;5.80;4.05;;;;;;;23.53;62.58;99250.31;5091115;28;20027;-74
2021/06/19 08:00:26;;;;;;;5.10;4.25;;;;;;;23.32;62.52;99203.69;5090896;28;20021;-76
2021/06/19 08:02:51;;;;;;;5.72;4.65;;;;;;;23.62;62.15;99224.47;5089660;28;20024;-75
2021/06/19 08:05:17;;;;;;;8.50;4.90;;;;;;;23.80;61.76;99237.41;5090944;28;20499;-76
2021/06/19 08:07:42;;;;;;;6.47;4.90;;;;;;;23.74;61.29;99217.69;5091011;28;20111;-74
2021/06/19 08:10:09;;;;;;;15.75;5.10;;;;;;;23.59;61.59;99179.19;5091233;28;20012;-76
2021/06/19 08:12:35;;;;;;;6.03;4.65;;;;;;;23.65;61.47;99189.69;5090974;28;20103;-74
2021/06/19 08:15:02;;;;;;;8.32;4.85;;;;;;;23.94;61.68;99234.94;5090713;28;20474;-75
2021/06/19 08:17:28;;;;;;;5.20;4.65;;;;;;;24.27;61.26;99255.13;5090878;28;20031;-75
2021/06/19 08:19:53;;;;;;;6.45;4.40;;;;;;;24.07;61.10;99219.00;5090970;28;20028;-76
2021/06/19 08:22:19;;;;;;;6.22;4.43;;;;;;;23.92;61.05;99185.88;5090944;28;20496;-75
2021/06/19 08:24:47;;;;;;;5.50;4.90;;;;;;;24.50;60.57;99257.19;5090748;28;20027;-75
2021/06/19 08:27:12;;;;;;;8.45;5.25;;;;;;;24.50;60.06;99242.91;5091619;28;20031;-75
2021/06/19 08:29:38;;;;;;;8.98;4.88;;;;;;;24.33;59.98;99214.34;5094538;28;20023;-75
2021/06/19 08:32:04;;;;;;;7.88;5.70;;;;;;;24.02;60.18;99161.56;5094337;28;20461;-76
2021/06/19 08:34:30;;;;;;;8.23;6.28;;;;;;;24.43;60.50;99239.69;5093029;28;20031;-75
2021/06/19 08:36:55;;;;;;;7.32;6.22;;;;;;;24.33;60.40;99221.66;5094213;28;20020;-76
2021/06/19 08:39:20;;;;;;;7.22;5.28;;;;;;;24.43;60.21;99239.69;5094399;28;20051;-76
2021/06/19 08:41:49;;;;;;;7.75;4.60;;;;;;;24.27;59.79;99210.06;5094167;28;20020;-76
2021/06/19 08:44:25;;;;;;;7.78;5.13;;;;;;;24.45;59.97;99241.03;5092814;28;20020;-74
2021/06/19 08:46:52;;;;;;;7.18;4.95;;;;;;;24.14;59.46;99159.38;5094276;28;20031;-75
2021/06/19 08:49:28;;;;;;;6.72;4.78;;;;;;;24.28;59.16;99165.00;5093824;28;20030;-75
2021/06/19 08:51:54;;;;;;;10.10;6.10;;;;;;;24.87;58.94;99262.19;5094287;28;20146;-76
2021/06/19 09:04:25;;;;;;;4.53;4.10;;;;;;;25.19;57.63;99252.81;5094381;28;20081;-76
2021/06/19 09:14:15;;;;;;;4.72;3.25;;;;;;;25.22;56.18;99258.47;5093710;28;20061;-75
2021/06/19 09:16:43;;;;;;;3.58;3.28;;;;;;;25.47;55.44;99256.69;5093621;28;20027;-75
2021/06/19 09:19:25;;;;;;;5.03;3.60;;;;;;;25.62;55.18;99256.56;5092486;28;20039;-76
2021/06/19 09:22:11;;;;;;;6.57;4.32;;;;;;;25.60;54.79;99261.47;5093963;28;20077;-75
2021/06/19 09:24:50;;;;;;;7.53;4.55;;;;;;;25.57;55.23;99229.59;5093548;28;20028;-74
2021/06/19 09:27:34;;;;;;;4.45;3.80;;;;;;;26.13;54.51;99256.94;5092620;28;20031;-75
2021/06/19 09:30:16;;;;;;;4.78;3.60;;;;;;;26.26;52.35;99253.56;5092454;28;20024;-75
2021/06/19 09:32:47;;;;;;;3.72;3.30;;;;;;;26.26;53.58;99250.03;5092316;28;20503;-76
2021/06/19 09:35:19;;;;;;;6.15;3.42;;;;;;;26.27;52.39;99243.53;5094447;28;20031;-75
2021/06/19 09:37:50;;;;;;;5.35;3.90;;;;;;;25.78;52.98;99187.78;5093647;28;20112;-75
2021/06/19 09:40:25;;;;;;;4.78;4.05;;;;;;;26.19;53.02;99249.59;5092749;28;20031;-76
2021/06/19 09:42:51;;;;;;;4.57;4.15;;;;;;;26.08;52.75;99234.56;5091990;28;20034;-76
2021/06/19 09:45:21;;;;;;;4.82;4.00;;;;;;;25.86;52.82;99203.38;5093187;28;20175;-76
2021/06/19 09:47:47;;;;;;;6.75;4.28;;;;;;;26.11;52.93;99251.03;5091846;28;20423;-75
2021/06/19 09:50:13;;;;;;;4.40;3.63;;;;;;;26.06;51.96;99250.25;5093075;28;20022;-76
2021/06/19 09:52:39;;;;;;;4.05;3.58;;;;;;;25.99;52.32;99247.88;5093133;28;20095;-75
2021/06/19 09:55:11;;;;;;;3.80;3.50;;;;;;;26.01;52.60;99244.88;5090471;28;20416;-76
2021/06/19 09:57:44;;;;;;;4.43;4.03;;;;;;;25.32;53.28;99141.41;5092996;28;20015;-75
2021/06/19 10:00:15;;;;;;;5.80;4.20;;;;;;;26.00;53.22;99249.47;5091400;28;20016;-76
2021/06/19 10:02:42;;;;;;;4.75;3.60;;;;;;;25.80;53.15;99207.22;5092907;28;20098;-76
2021/06/19 10:05:08;;;;;;;6.45;4.15;;;;;;;26.02;52.67;99224.88;5092903;28;20050;-75
2021/06/19 10:07:34;;;;;;;3.67;3.38;;;;;;;25.93;52.90;99187.59;5092757;28;20016;-75
2021/06/19 10:10:01;;;;;;;3.10;2.83;;;;;;;26.24;51.98;99223.25;5092899;28;20064;-75
2021/06/19 10:12:29;;;;;;;5.53;3.35;;;;;;;26.26;51.91;99226.50;5092978;28;20077;-75
2021/06/19 10:15:01;;;;;;;8.10;4.28;;;;;;;25.87;52.13;99164.41;5092784;28;20020;-76
2021/06/19 10:17:42;;;;;;;3.25;2.67;;;;;;;26.22;51.59;99222.75;5093238;28;20400;-75
2021/06/19 10:20:13;;;;;;;5.50;3.22;;;;;;;26.24;51.45;99225.16;5092539;28;20020;-75
2021/06/19 10:22:40;;;;;;;3.15;2.17;;;;;;;25.78;51.16;99151.81;5092640;28;20044;-75
2021/06/19 10:25:09;;;;;;;4.22;2.50;;;;;;;26.13;51.32;99215.56;5092811;28;20439;-76
2021/06/19 10:27:37;;;;;;;3.25;2.20;;;;;;;26.08;51.13;99212.91;5092394;28;20073;-76
2021/06/19 10:30:06;;;;;;;2.28;2.05;;;;;;;25.90;51.47;99180.06;5090941;28;20029;-75
2021/06/19 10:32:40;;;;;;;2.80;1.83;;;;;;;25.59;51.28;99138.19;5092323;28;20595;-76
2021/06/19 10:35:06;;;;;;;3.72;1.83;;;;;;;25.84;51.16;99188.53;5092273;28;20020;-76
2021/06/19 10:37:31;;;;;;;2.25;2.00;;;;;;;25.67;51.61;99172.75;5092220;28;20404;-75
2021/06/19 10:40:13;;;;;;;3.00;2.80;;;;;;;25.64;50.80;99157.88;5092321;28;20123;-75
2021/06/19 10:42:39;;;;;;;1.83;1.73;;;;;;;25.73;50.63;99147.25;5090914;28;20028;-75
2021/06/19 10:45:07;;;;;;;2.78;1.80;;;;;;;26.01;50.00;99132.09;5091757;28;20504;-76
2021/06/19 10:47:56;;;;;;;4.05;1.73;;;;;;;26.98;49.00;99193.94;5092267;28;20020;-75
2021/06/19 10:50:23;;;;;;;1.50;1.40;;;;;;;27.12;48.39;99194.78;5091428;28;20085;-75
2021/06/19 10:53:01;;;;;;;1.30;1.17;;;;;;;27.17;47.23;99193.91;5090216;28;20021;-75
2021/06/19 10:55:27;;;;;;;1.63;1.17;;;;;;;27.11;48.11;99195.09;5090586;28;20459;-75
2021/06/19 10:58:00;;;;;;;1.08;0.80;;;;;;;26.68;46.58;99148.28;5091960;28;20492;-76
2021/06/19 11:00:33;;;;;;;3.10;0.60;;;;;;;26.93;46.80;99188.56;5091781;28;20020;-75
2021/06/19 11:03:01;;;;;;;1.52;0.82;;;;;;;26.55;46.54;99139.78;5091751;28;20102;-74
2021/06/19 11:05:44;;;;;;;2.67;1.00;;;;;;;26.78;45.00;99183.38;5091600;28;20024;-74
2021/06/19 11:08:17;;;;;;;3.35;1.30;;;;;;;26.59;45.83;99167.88;5091984;28;20560;-74
2021/06/19 11:10:49;;;;;;;3.85;2.42;;;;;;;26.59;46.30;99183.31;5091870;28;20039;-74
2021/06/19 11:13:29;;;;;;;5.65;3.72;;;;;;;26.50;45.96;99185.06;5092020;28;20435;-75
2021/06/19 11:16:00;;;;;;;13.60;6.95;;;;;;;26.49;46.26;99181.56;5092528;28;20468;-75
2021/06/19 11:18:48;;;;;;;4.75;1.80;;;;;;;26.69;46.08;99179.66;5092678;28;20085;-74
2021/06/19 11:21:15;;;;;;;8.35;4.88;;;;;;;27.48;45.47;99173.31;5092295;28;20407;-75
2021/06/19 11:23:59;;;;;;;11.73;7.18;;;;;;;28.15;43.15;99173.72;5091676;28;20540;-73
2021/06/19 11:26:56;;;;;;;2.42;1.63;;;;;;;28.27;42.00;99177.88;5091378;28;20016;-75
2021/06/19 11:29:41;;;;;;;4.90;3.00;;;;;;;28.28;42.47;99145.00;5091454;28;20389;-76
2021/06/19 11:32:35;;;;;;;1.83;1.30;;;;;;;28.62;42.41;99177.13;5091537;28;20036;-76
2021/06/19 11:35:03;;;;;;;3.20;1.50;;;;;;;28.61;43.24;99175.50;5091764;28;20021;-75
2021/06/19 11:37:51;;;;;;;2.28;0.95;;;;;;;28.77;42.18;99168.63;5091957;28;20016;-75
2021/06/19 11:40:29;;;;;;;0.93;0.80;;;;;;;28.77;41.93;99146.88;5091432;28;20055;-75
2021/06/19 11:42:55;;;;;;;3.80;0.70;;;;;;;28.92;41.38;99121.28;5091704;28;20096;-74
2021/06/19 11:45:20;;;;;;;2.05;1.15;;;;;;;29.00;41.08;99066.22;5091480;28;20107;-73
2021/06/19 11:47:47;;;;;;;1.20;0.65;;;;;;;29.03;41.19;99084.63;5091459;28;20031;-73
2021/06/19 11:50:13;;;;;;;1.88;0.70;;;;;;;29.27;40.88;99160.41;5091584;28;20031;-73
2021/06/19 11:52:39;;;;;;;1.30;1.10;;;;;;;28.96;41.40;99148.66;5091384;28;20047;-73
2021/06/19 11:55:05;;;;;;;3.90;1.30;;;;;;;28.56;41.96;99118.59;5091386;28;20016;-76